sensor_id;sensor_type;location;lat;lon;timestamp;P1;durP1;ratioP1;P2;durP2;ratioP2
13197;SDS011;6664;52.514;13.440;2022-07-23T00:00:56;4.80;;;4.20;;
13197;SDS011;6664;52.514;13.440;2022-07-23T00:03:26;5.13;;;3.87;;
13197;SDS011;6664;52.514;13.440;2022-07-23T00:05:55;6.10;;;3.87;;
13197;SDS011;6664;52.514;13.440;2022-07-23T00:08:22;3.67;;;3.37;;
13197;SDS011;6664;52.514;13.440;2022-07-23T00:10:49;5.30;;;4.33;;
13197;SDS011;6664;52.514;13.440;2022-07-23T00:13:16;6.97;;;4.10;;
13197;SDS011;6664;52.514;13.440;2022-07-23T00:15:43;4.23;;;3.73;;
13197;SDS011;6664;52.514;13.440;2022-07-23T00:18:12;6.80;;;3.97;;
13197;SDS011;6664;52.514;13.440;2022-07-23T00:20:42;3.93;;;3.63;;
13197;SDS011;6664;52.514;13.440;2022-07-23T00:23:09;4.40;;;3.67;;
13197;SDS011;6664;52.514;13.440;2022-07-23T00:25:38;6.50;;;4.67;;
13197;SDS011;6664;52.514;13.440;2022-07-23T00:28:05;9.03;;;4.23;;
13197;SDS011;6664;52.514;13.440;2022-07-23T00:30:32;4.00;;;3.60;;
13197;SDS011;6664;52.514;13.440;2022-07-23T00:33:03;5.70;;;4.03;;
13197;SDS011;6664;52.514;13.440;2022-07-23T00:35:33;4.07;;;3.70;;
13197;SDS011;6664;52.514;13.440;2022-07-23T00:38:04;4.00;;;3.40;;
13197;SDS011;6664;52.514;13.440;2022-07-23T00:40:32;6.97;;;3.90;;
13197;SDS011;6664;52.514;13.440;2022-07-23T00:42:59;8.37;;;4.20;;
13197;SDS011;6664;52.514;13.440;2022-07-23T00:45:28;4.53;;;3.53;;
13197;SDS011;6664;52.514;13.440;2022-07-23T00:47:55;3.70;;;3.40;;
13197;SDS011;6664;52.514;13.440;2022-07-23T00:50:22;5.30;;;3.90;;
13197;SDS011;6664;52.514;13.440;2022-07-23T00:52:51;8.20;;;3.83;;
13197;SDS011;6664;52.514;13.440;2022-07-23T00:55:19;6.53;;;4.20;;
13197;SDS011;6664;52.514;13.440;2022-07-23T00:57:46;3.80;;;3.40;;
13197;SDS011;6664;52.514;13.440;2022-07-23T01:00:14;6.87;;;4.30;;
13197;SDS011;6664;52.514;13.440;2022-07-23T01:02:42;6.57;;;4.10;;
13197;SDS011;6664;52.514;13.440;2022-07-23T01:05:11;6.23;;;4.40;;
13197;SDS011;6664;52.514;13.440;2022-07-23T01:07:41;5.17;;;3.43;;
13197;SDS011;6664;52.514;13.440;2022-07-23T01:10:09;5.03;;;4.20;;
13197;SDS011;6664;52.514;13.440;2022-07-23T01:12:55;5.33;;;4.30;;
13197;SDS011;6664;52.514;13.440;2022-07-23T01:15:30;4.40;;;4.00;;
13197;SDS011;6664;52.514;13.440;2022-07-23T01:18:00;5.50;;;3.53;;
13197;SDS011;6664;52.514;13.440;2022-07-23T01:20:28;5.17;;;4.47;;
13197;SDS011;6664;52.514;13.440;2022-07-23T01:22:55;4.40;;;4.10;;
13197;SDS011;6664;52.514;13.440;2022-07-23T01:25:22;4.90;;;3.90;;
13197;SDS011;6664;52.514;13.440;2022-07-23T01:27:51;4.30;;;3.90;;
13197;SDS011;6664;52.514;13.440;2022-07-23T01:30:21;5.20;;;3.93;;
13197;SDS011;6664;52.514;13.440;2022-07-23T01:32:48;5.30;;;3.93;;
13197;SDS011;6664;52.514;13.440;2022-07-23T01:35:18;8.83;;;4.80;;
13197;SDS011;6664;52.514;13.440;2022-07-23T01:38:11;4.50;;;4.10;;
13197;SDS011;6664;52.514;13.440;2022-07-23T01:40:52;4.47;;;4.07;;
13197;SDS011;6664;52.514;13.440;2022-07-23T01:43:22;10.90;;;4.23;;
13197;SDS011;6664;52.514;13.440;2022-07-23T01:45:52;7.90;;;4.60;;
13197;SDS011;6664;52.514;13.440;2022-07-23T01:48:19;4.60;;;4.20;;
13197;SDS011;6664;52.514;13.440;2022-07-23T01:50:51;9.63;;;4.67;;
13197;SDS011;6664;52.514;13.440;2022-07-23T01:53:18;5.87;;;4.47;;
13197;SDS011;6664;52.514;13.440;2022-07-23T01:55:47;7.73;;;4.10;;
13197;SDS011;6664;52.514;13.440;2022-07-23T01:58:14;8.00;;;3.73;;
13197;SDS011;6664;52.514;13.440;2022-07-23T02:00:48;5.77;;;4.70;;
13197;SDS011;6664;52.514;13.440;2022-07-23T02:03:15;4.10;;;3.73;;
13197;SDS011;6664;52.514;13.440;2022-07-23T02:05:44;5.33;;;4.60;;
13197;SDS011;6664;52.514;13.440;2022-07-23T02:08:14;6.43;;;4.43;;
13197;SDS011;6664;52.514;13.440;2022-07-23T02:10:41;10.43;;;3.70;;
13197;SDS011;6664;52.514;13.440;2022-07-23T02:13:14;5.33;;;3.83;;
13197;SDS011;6664;52.514;13.440;2022-07-23T02:15:45;9.70;;;4.33;;
13197;SDS011;6664;52.514;13.440;2022-07-23T02:18:13;5.90;;;4.47;;
13197;SDS011;6664;52.514;13.440;2022-07-23T02:20:40;4.10;;;3.80;;
13197;SDS011;6664;52.514;13.440;2022-07-23T02:23:07;5.80;;;4.50;;
13197;SDS011;6664;52.514;13.440;2022-07-23T02:25:45;9.53;;;3.77;;
13197;SDS011;6664;52.514;13.440;2022-07-23T02:28:12;4.23;;;3.70;;
13197;SDS011;6664;52.514;13.440;2022-07-23T02:30:42;5.57;;;3.90;;
13197;SDS011;6664;52.514;13.440;2022-07-23T02:33:10;4.27;;;3.70;;
13197;SDS011;6664;52.514;13.440;2022-07-23T02:35:37;7.17;;;3.87;;
13197;SDS011;6664;52.514;13.440;2022-07-23T02:38:04;5.63;;;4.40;;
13197;SDS011;6664;52.514;13.440;2022-07-23T02:40:31;4.70;;;4.20;;
13197;SDS011;6664;52.514;13.440;2022-07-23T02:42:58;7.37;;;4.03;;
13197;SDS011;6664;52.514;13.440;2022-07-23T02:45:28;6.00;;;3.93;;
13197;SDS011;6664;52.514;13.440;2022-07-23T02:47:55;6.80;;;4.00;;
13197;SDS011;6664;52.514;13.440;2022-07-23T02:50:23;7.93;;;4.20;;
13197;SDS011;6664;52.514;13.440;2022-07-23T02:52:50;4.53;;;4.13;;
13197;SDS011;6664;52.514;13.440;2022-07-23T02:55:20;6.40;;;4.33;;
13197;SDS011;6664;52.514;13.440;2022-07-23T02:57:50;5.07;;;3.70;;
13197;SDS011;6664;52.514;13.440;2022-07-23T03:00:17;4.60;;;4.20;;
13197;SDS011;6664;52.514;13.440;2022-07-23T03:02:44;4.20;;;3.63;;
13197;SDS011;6664;52.514;13.440;2022-07-23T03:05:10;5.47;;;3.27;;
13197;SDS011;6664;52.514;13.440;2022-07-23T03:07:37;4.13;;;3.73;;
13197;SDS011;6664;52.514;13.440;2022-07-23T03:10:04;5.00;;;3.63;;
13197;SDS011;6664;52.514;13.440;2022-07-23T03:12:36;4.67;;;3.70;;
13197;SDS011;6664;52.514;13.440;2022-07-23T03:15:04;5.97;;;3.70;;
13197;SDS011;6664;52.514;13.440;2022-07-23T03:17:35;12.40;;;4.60;;
13197;SDS011;6664;52.514;13.440;2022-07-23T03:20:02;5.07;;;4.17;;
13197;SDS011;6664;52.514;13.440;2022-07-23T03:22:29;4.87;;;3.53;;
13197;SDS011;6664;52.514;13.440;2022-07-23T03:24:56;5.50;;;3.67;;
13197;SDS011;6664;52.514;13.440;2022-07-23T03:27:24;4.50;;;3.77;;
13197;SDS011;6664;52.514;13.440;2022-07-23T03:29:52;7.30;;;3.97;;
13197;SDS011;6664;52.514;13.440;2022-07-23T03:32:21;5.73;;;4.97;;
13197;SDS011;6664;52.514;13.440;2022-07-23T03:34:50;5.87;;;3.73;;
13197;SDS011;6664;52.514;13.440;2022-07-23T03:37:24;4.87;;;4.40;;
13197;SDS011;6664;52.514;13.440;2022-07-23T03:39:51;3.47;;;3.13;;
13197;SDS011;6664;52.514;13.440;2022-07-23T03:42:21;8.07;;;3.77;;
13197;SDS011;6664;52.514;13.440;2022-07-23T03:44:53;4.40;;;3.60;;
13197;SDS011;6664;52.514;13.440;2022-07-23T03:47:20;5.93;;;3.30;;
13197;SDS011;6664;52.514;13.440;2022-07-23T03:49:48;5.00;;;3.10;;
13197;SDS011;6664;52.514;13.440;2022-07-23T03:52:18;3.50;;;3.17;;
13197;SDS011;6664;52.514;13.440;2022-07-23T03:54:45;3.97;;;3.67;;
13197;SDS011;6664;52.514;13.440;2022-07-23T03:57:13;7.33;;;3.40;;
13197;SDS011;6664;52.514;13.440;2022-07-23T03:59:41;4.10;;;2.90;;
13197;SDS011;6664;52.514;13.440;2022-07-23T04:02:11;3.57;;;3.00;;
13197;SDS011;6664;52.514;13.440;2022-07-23T04:04:40;4.50;;;2.90;;
13197;SDS011;6664;52.514;13.440;2022-07-23T04:07:09;7.50;;;2.70;;
13197;SDS011;6664;52.514;13.440;2022-07-23T04:09:39;3.50;;;3.20;;
13197;SDS011;6664;52.514;13.440;2022-07-23T04:12:11;6.37;;;3.27;;
13197;SDS011;6664;52.514;13.440;2022-07-23T04:14:41;3.17;;;2.70;;
13197;SDS011;6664;52.514;13.440;2022-07-23T04:17:07;7.27;;;2.83;;
13197;SDS011;6664;52.514;13.440;2022-07-23T04:19:34;3.27;;;2.70;;
13197;SDS011;6664;52.514;13.440;2022-07-23T04:22:06;6.73;;;2.47;;
13197;SDS011;6664;52.514;13.440;2022-07-23T04:24:39;3.83;;;2.23;;
13197;SDS011;6664;52.514;13.440;2022-07-23T04:27:05;5.40;;;2.83;;
13197;SDS011;6664;52.514;13.440;2022-07-23T04:29:32;9.73;;;2.40;;
13197;SDS011;6664;52.514;13.440;2022-07-23T04:31:59;2.40;;;2.03;;
13197;SDS011;6664;52.514;13.440;2022-07-23T04:34:26;6.17;;;2.40;;
13197;SDS011;6664;52.514;13.440;2022-07-23T04:36:53;3.40;;;2.53;;
13197;SDS011;6664;52.514;13.440;2022-07-23T04:39:20;4.10;;;2.23;;
13197;SDS011;6664;52.514;13.440;2022-07-23T04:41:47;3.80;;;2.50;;
13197;SDS011;6664;52.514;13.440;2022-07-23T04:44:14;5.17;;;2.03;;
13197;SDS011;6664;52.514;13.440;2022-07-23T04:46:41;2.20;;;2.00;;
13197;SDS011;6664;52.514;13.440;2022-07-23T04:49:08;3.00;;;1.70;;
13197;SDS011;6664;52.514;13.440;2022-07-23T04:51:35;5.53;;;2.57;;
13197;SDS011;6664;52.514;13.440;2022-07-23T04:54:04;2.23;;;2.10;;
13197;SDS011;6664;52.514;13.440;2022-07-23T04:56:31;4.93;;;1.93;;
13197;SDS011;6664;52.514;13.440;2022-07-23T04:59:01;2.60;;;2.40;;
13197;SDS011;6664;52.514;13.440;2022-07-23T05:01:31;2.07;;;1.97;;
13197;SDS011;6664;52.514;13.440;2022-07-23T05:03:57;2.13;;;1.90;;
13197;SDS011;6664;52.514;13.440;2022-07-23T05:06:24;5.50;;;2.50;;
13197;SDS011;6664;52.514;13.440;2022-07-23T05:08:51;2.33;;;2.03;;
13197;SDS011;6664;52.514;13.440;2022-07-23T05:11:18;3.70;;;2.60;;
13197;SDS011;6664;52.514;13.440;2022-07-23T05:13:52;4.90;;;2.43;;
13197;SDS011;6664;52.514;13.440;2022-07-23T05:16:19;2.97;;;2.37;;
13197;SDS011;6664;52.514;13.440;2022-07-23T05:18:45;2.60;;;2.30;;
13197;SDS011;6664;52.514;13.440;2022-07-23T05:21:12;3.33;;;2.47;;
13197;SDS011;6664;52.514;13.440;2022-07-23T05:23:42;6.00;;;2.20;;
13197;SDS011;6664;52.514;13.440;2022-07-23T05:26:08;1.80;;;1.70;;
13197;SDS011;6664;52.514;13.440;2022-07-23T05:28:42;7.00;;;2.00;;
13197;SDS011;6664;52.514;13.440;2022-07-23T05:31:15;4.47;;;2.40;;
13197;SDS011;6664;52.514;13.440;2022-07-23T05:33:42;3.03;;;1.90;;
13197;SDS011;6664;52.514;13.440;2022-07-23T05:36:09;7.07;;;2.73;;
13197;SDS011;6664;52.514;13.440;2022-07-23T05:38:40;2.10;;;1.97;;
13197;SDS011;6664;52.514;13.440;2022-07-23T05:41:07;4.23;;;2.33;;
13197;SDS011;6664;52.514;13.440;2022-07-23T05:43:34;2.30;;;2.10;;
13197;SDS011;6664;52.514;13.440;2022-07-23T05:46:01;6.30;;;2.07;;
13197;SDS011;6664;52.514;13.440;2022-07-23T05:48:28;5.23;;;2.10;;
13197;SDS011;6664;52.514;13.440;2022-07-23T05:50:55;4.43;;;2.90;;
13197;SDS011;6664;52.514;13.440;2022-07-23T05:53:22;2.70;;;1.73;;
13197;SDS011;6664;52.514;13.440;2022-07-23T05:55:51;4.43;;;2.47;;
13197;SDS011;6664;52.514;13.440;2022-07-23T05:58:17;3.87;;;2.50;;
13197;SDS011;6664;52.514;13.440;2022-07-23T06:00:47;4.50;;;2.13;;
13197;SDS011;6664;52.514;13.440;2022-07-23T06:03:14;4.13;;;2.40;;
13197;SDS011;6664;52.514;13.440;2022-07-23T06:05:41;4.50;;;2.50;;
13197;SDS011;6664;52.514;13.440;2022-07-23T06:08:08;2.90;;;2.23;;
13197;SDS011;6664;52.514;13.440;2022-07-23T06:10:35;3.23;;;2.37;;
13197;SDS011;6664;52.514;13.440;2022-07-23T06:13:01;3.93;;;2.33;;
13197;SDS011;6664;52.514;13.440;2022-07-23T06:15:31;5.13;;;2.80;;
13197;SDS011;6664;52.514;13.440;2022-07-23T06:18:00;2.30;;;2.07;;
13197;SDS011;6664;52.514;13.440;2022-07-23T06:20:31;5.93;;;2.70;;
13197;SDS011;6664;52.514;13.440;2022-07-23T06:22:58;3.23;;;2.43;;
13197;SDS011;6664;52.514;13.440;2022-07-23T06:25:25;5.57;;;2.27;;
13197;SDS011;6664;52.514;13.440;2022-07-23T06:27:52;4.13;;;2.97;;
13197;SDS011;6664;52.514;13.440;2022-07-23T06:30:22;4.13;;;2.43;;
13197;SDS011;6664;52.514;13.440;2022-07-23T06:32:56;6.90;;;2.97;;
13197;SDS011;6664;52.514;13.440;2022-07-23T06:35:25;3.10;;;2.13;;
13197;SDS011;6664;52.514;13.440;2022-07-23T06:37:55;6.30;;;2.83;;
13197;SDS011;6664;52.514;13.440;2022-07-23T06:40:22;5.23;;;2.73;;
13197;SDS011;6664;52.514;13.440;2022-07-23T06:42:49;4.03;;;2.50;;
13197;SDS011;6664;52.514;13.440;2022-07-23T06:45:18;3.27;;;2.43;;
13197;SDS011;6664;52.514;13.440;2022-07-23T06:47:47;7.37;;;2.10;;
13197;SDS011;6664;52.514;13.440;2022-07-23T06:50:14;7.10;;;2.90;;
13197;SDS011;6664;52.514;13.440;2022-07-23T06:52:41;2.90;;;2.60;;
13197;SDS011;6664;52.514;13.440;2022-07-23T06:55:08;4.37;;;3.17;;
13197;SDS011;6664;52.514;13.440;2022-07-23T06:57:35;3.03;;;2.73;;
13197;SDS011;6664;52.514;13.440;2022-07-23T07:00:03;3.03;;;2.73;;
13197;SDS011;6664;52.514;13.440;2022-07-23T07:02:33;2.27;;;2.10;;
13197;SDS011;6664;52.514;13.440;2022-07-23T07:05:02;3.00;;;2.67;;
13197;SDS011;6664;52.514;13.440;2022-07-23T07:07:32;7.90;;;2.90;;
13197;SDS011;6664;52.514;13.440;2022-07-23T07:10:02;5.43;;;3.07;;
13197;SDS011;6664;52.514;13.440;2022-07-23T07:12:38;7.70;;;2.93;;
13197;SDS011;6664;52.514;13.440;2022-07-23T07:15:05;5.23;;;3.27;;
13197;SDS011;6664;52.514;13.440;2022-07-23T07:17:34;4.10;;;2.80;;
13197;SDS011;6664;52.514;13.440;2022-07-23T07:20:03;7.73;;;3.07;;
13197;SDS011;6664;52.514;13.440;2022-07-23T07:22:30;5.47;;;3.13;;
13197;SDS011;6664;52.514;13.440;2022-07-23T07:24:57;3.57;;;3.00;;
13197;SDS011;6664;52.514;13.440;2022-07-23T07:27:24;6.40;;;2.77;;
13197;SDS011;6664;52.514;13.440;2022-07-23T07:29:52;11.50;;;3.40;;
13197;SDS011;6664;52.514;13.440;2022-07-23T07:32:19;3.67;;;2.90;;
13197;SDS011;6664;52.514;13.440;2022-07-23T07:35:09;3.77;;;2.80;;
13197;SDS011;6664;52.514;13.440;2022-07-23T07:37:41;4.30;;;2.83;;
13197;SDS011;6664;52.514;13.440;2022-07-23T07:40:08;3.13;;;2.83;;
13197;SDS011;6664;52.514;13.440;2022-07-23T07:42:43;4.00;;;3.10;;
13197;SDS011;6664;52.514;13.440;2022-07-23T07:45:16;3.00;;;2.40;;
13197;SDS011;6664;52.514;13.440;2022-07-23T07:47:48;5.43;;;2.37;;
13197;SDS011;6664;52.514;13.440;2022-07-23T07:50:15;2.97;;;2.77;;
13197;SDS011;6664;52.514;13.440;2022-07-23T07:52:42;6.33;;;3.07;;
13197;SDS011;6664;52.514;13.440;2022-07-23T07:55:09;5.30;;;2.80;;
13197;SDS011;6664;52.514;13.440;2022-07-23T07:57:39;6.17;;;3.20;;
13197;SDS011;6664;52.514;13.440;2022-07-23T08:00:07;5.53;;;2.97;;
13197;SDS011;6664;52.514;13.440;2022-07-23T08:02:49;2.30;;;2.20;;
13197;SDS011;6664;52.514;13.440;2022-07-23T08:05:25;10.13;;;4.50;;
13197;SDS011;6664;52.514;13.440;2022-07-23T08:07:59;5.00;;;2.70;;
13197;SDS011;6664;52.514;13.440;2022-07-23T08:10:26;5.80;;;3.80;;
13197;SDS011;6664;52.514;13.440;2022-07-23T08:12:54;6.30;;;4.00;;
13197;SDS011;6664;52.514;13.440;2022-07-23T08:15:28;3.57;;;2.53;;
13197;SDS011;6664;52.514;13.440;2022-07-23T08:18:00;3.20;;;2.90;;
13197;SDS011;6664;52.514;13.440;2022-07-23T08:20:27;6.77;;;3.83;;
13197;SDS011;6664;52.514;13.440;2022-07-23T08:23:04;5.93;;;4.10;;
13197;SDS011;6664;52.514;13.440;2022-07-23T08:25:34;5.30;;;3.10;;
13197;SDS011;6664;52.514;13.440;2022-07-23T08:28:05;7.10;;;3.30;;
13197;SDS011;6664;52.514;13.440;2022-07-23T08:30:38;2.33;;;2.13;;
13197;SDS011;6664;52.514;13.440;2022-07-23T08:33:07;4.00;;;2.27;;
13197;SDS011;6664;52.514;13.440;2022-07-23T08:35:59;5.23;;;2.47;;
13197;SDS011;6664;52.514;13.440;2022-07-23T08:38:30;3.50;;;2.63;;
13197;SDS011;6664;52.514;13.440;2022-07-23T08:41:07;4.57;;;2.70;;
13197;SDS011;6664;52.514;13.440;2022-07-23T08:43:37;3.10;;;2.13;;
13197;SDS011;6664;52.514;13.440;2022-07-23T08:46:06;2.70;;;2.47;;
13197;SDS011;6664;52.514;13.440;2022-07-23T08:48:33;3.97;;;3.20;;
13197;SDS011;6664;52.514;13.440;2022-07-23T08:51:09;6.10;;;2.70;;
13197;SDS011;6664;52.514;13.440;2022-07-23T08:53:39;4.50;;;2.70;;
13197;SDS011;6664;52.514;13.440;2022-07-23T08:56:08;3.60;;;2.53;;
13197;SDS011;6664;52.514;13.440;2022-07-23T08:58:35;3.17;;;2.73;;
13197;SDS011;6664;52.514;13.440;2022-07-23T09:01:02;6.37;;;2.57;;
13197;SDS011;6664;52.514;13.440;2022-07-23T09:03:30;3.03;;;2.30;;
13197;SDS011;6664;52.514;13.440;2022-07-23T09:05:59;2.43;;;2.30;;
13197;SDS011;6664;52.514;13.440;2022-07-23T09:11:08;3.20;;;2.10;;
13197;SDS011;6664;52.514;13.440;2022-07-23T09:13:47;3.10;;;2.10;;
13197;SDS011;6664;52.514;13.440;2022-07-23T09:16:17;2.83;;;2.47;;
13197;SDS011;6664;52.514;13.440;2022-07-23T09:21:37;5.50;;;2.70;;
13197;SDS011;6664;52.514;13.440;2022-07-23T09:26:45;2.03;;;1.93;;
13197;SDS011;6664;52.514;13.440;2022-07-23T09:34:15;3.33;;;2.40;;
13197;SDS011;6664;52.514;13.440;2022-07-23T09:36:45;3.53;;;2.80;;
13197;SDS011;6664;52.514;13.440;2022-07-23T09:39:16;4.73;;;2.93;;
13197;SDS011;6664;52.514;13.440;2022-07-23T09:41:55;2.80;;;2.60;;
13197;SDS011;6664;52.514;13.440;2022-07-23T09:44:45;2.80;;;2.60;;
13197;SDS011;6664;52.514;13.440;2022-07-23T09:47:23;7.50;;;2.90;;
13197;SDS011;6664;52.514;13.440;2022-07-23T09:52:33;5.67;;;3.07;;
13197;SDS011;6664;52.514;13.440;2022-07-23T09:55:16;2.60;;;2.40;;
13197;SDS011;6664;52.514;13.440;2022-07-23T09:57:45;4.83;;;2.73;;
13197;SDS011;6664;52.514;13.440;2022-07-23T10:00:31;4.10;;;2.87;;
13197;SDS011;6664;52.514;13.440;2022-07-23T10:02:58;2.73;;;2.53;;
13197;SDS011;6664;52.514;13.440;2022-07-23T10:05:28;2.80;;;2.10;;
13197;SDS011;6664;52.514;13.440;2022-07-23T10:07:59;3.03;;;2.60;;
13197;SDS011;6664;52.514;13.440;2022-07-23T10:10:28;3.13;;;2.93;;
13197;SDS011;6664;52.514;13.440;2022-07-23T10:12:56;4.63;;;2.27;;
13197;SDS011;6664;52.514;13.440;2022-07-23T10:15:23;4.20;;;2.87;;
13197;SDS011;6664;52.514;13.440;2022-07-23T10:17:56;2.73;;;2.50;;
13197;SDS011;6664;52.514;13.440;2022-07-23T10:20:23;5.30;;;3.13;;
13197;SDS011;6664;52.514;13.440;2022-07-23T10:23:02;7.80;;;3.07;;
13197;SDS011;6664;52.514;13.440;2022-07-23T10:31:32;2.43;;;1.83;;
13197;SDS011;6664;52.514;13.440;2022-07-23T10:34:24;3.00;;;2.50;;
13197;SDS011;6664;52.514;13.440;2022-07-23T10:43:01;2.70;;;2.30;;
13197;SDS011;6664;52.514;13.440;2022-07-23T10:45:47;3.20;;;2.30;;
13197;SDS011;6664;52.514;13.440;2022-07-23T10:48:16;4.10;;;2.63;;
13197;SDS011;6664;52.514;13.440;2022-07-23T10:59:19;2.13;;;1.90;;
13197;SDS011;6664;52.514;13.440;2022-07-23T11:01:49;5.57;;;3.50;;
13197;SDS011;6664;52.514;13.440;2022-07-23T11:04:18;4.33;;;1.97;;
13197;SDS011;6664;52.514;13.440;2022-07-23T11:17:36;5.50;;;2.30;;
13197;SDS011;6664;52.514;13.440;2022-07-23T11:22:47;2.80;;;2.33;;
13197;SDS011;6664;52.514;13.440;2022-07-23T11:27:49;2.53;;;2.30;;
13197;SDS011;6664;52.514;13.440;2022-07-23T11:33:16;2.90;;;2.30;;
13197;SDS011;6664;52.514;13.440;2022-07-23T11:35:41;2.43;;;2.17;;
13197;SDS011;6664;52.514;13.440;2022-07-23T11:38:14;5.13;;;2.77;;
13197;SDS011;6664;52.514;13.440;2022-07-23T11:40:43;3.63;;;2.20;;
13197;SDS011;6664;52.514;13.440;2022-07-23T11:43:14;3.03;;;2.43;;
13197;SDS011;6664;52.514;13.440;2022-07-23T11:45:49;6.23;;;2.57;;
13197;SDS011;6664;52.514;13.440;2022-07-23T11:48:25;3.07;;;1.87;;
13197;SDS011;6664;52.514;13.440;2022-07-23T11:50:57;3.87;;;2.43;;
13197;SDS011;6664;52.514;13.440;2022-07-23T11:53:29;2.20;;;1.90;;
13197;SDS011;6664;52.514;13.440;2022-07-23T11:56:04;2.90;;;2.70;;
13197;SDS011;6664;52.514;13.440;2022-07-23T11:58:37;2.57;;;2.37;;
13197;SDS011;6664;52.514;13.440;2022-07-23T12:01:22;2.13;;;1.90;;
13197;SDS011;6664;52.514;13.440;2022-07-23T12:03:53;2.93;;;2.60;;
13197;SDS011;6664;52.514;13.440;2022-07-23T12:06:24;4.20;;;2.63;;
13197;SDS011;6664;52.514;13.440;2022-07-23T12:08:52;2.80;;;2.17;;
13197;SDS011;6664;52.514;13.440;2022-07-23T12:11:21;2.43;;;2.03;;
13197;SDS011;6664;52.514;13.440;2022-07-23T12:13:57;2.80;;;2.10;;
13197;SDS011;6664;52.514;13.440;2022-07-23T12:16:28;3.57;;;2.90;;
13197;SDS011;6664;52.514;13.440;2022-07-23T12:18:55;3.47;;;2.30;;
13197;SDS011;6664;52.514;13.440;2022-07-23T12:21:22;4.80;;;2.50;;
13197;SDS011;6664;52.514;13.440;2022-07-23T12:23:49;2.30;;;2.10;;
13197;SDS011;6664;52.514;13.440;2022-07-23T12:26:18;3.63;;;2.00;;
13197;SDS011;6664;52.514;13.440;2022-07-23T12:28:51;2.80;;;2.27;;
13197;SDS011;6664;52.514;13.440;2022-07-23T12:31:25;3.73;;;1.90;;
13197;SDS011;6664;52.514;13.440;2022-07-23T12:33:53;3.90;;;2.80;;
13197;SDS011;6664;52.514;13.440;2022-07-23T12:36:36;2.97;;;2.20;;
13197;SDS011;6664;52.514;13.440;2022-07-23T12:39:07;4.20;;;2.40;;
13197;SDS011;6664;52.514;13.440;2022-07-23T12:41:52;3.40;;;1.63;;
13197;SDS011;6664;52.514;13.440;2022-07-23T12:44:20;7.07;;;2.43;;
13197;SDS011;6664;52.514;13.440;2022-07-23T12:46:52;5.50;;;2.50;;
13197;SDS011;6664;52.514;13.440;2022-07-23T12:49:26;3.63;;;2.20;;
13197;SDS011;6664;52.514;13.440;2022-07-23T12:51:55;2.83;;;2.47;;
13197;SDS011;6664;52.514;13.440;2022-07-23T12:54:26;2.70;;;2.50;;
13197;SDS011;6664;52.514;13.440;2022-07-23T12:56:54;1.80;;;1.70;;
13197;SDS011;6664;52.514;13.440;2022-07-23T12:59:21;1.50;;;1.40;;
13197;SDS011;6664;52.514;13.440;2022-07-23T13:01:55;1.80;;;1.63;;
13197;SDS011;6664;52.514;13.440;2022-07-23T13:04:25;2.20;;;1.60;;
13197;SDS011;6664;52.514;13.440;2022-07-23T13:06:54;1.90;;;1.80;;
13197;SDS011;6664;52.514;13.440;2022-07-23T13:09:30;3.35;;;1.90;;
13197;SDS011;6664;52.514;13.440;2022-07-23T13:12:07;1.80;;;1.70;;
13197;SDS011;6664;52.514;13.440;2022-07-23T13:14:37;2.13;;;1.93;;
13197;SDS011;6664;52.514;13.440;2022-07-23T13:17:07;2.53;;;2.33;;
13197;SDS011;6664;52.514;13.440;2022-07-23T13:19:35;1.83;;;1.73;;
13197;SDS011;6664;52.514;13.440;2022-07-23T13:22:04;2.07;;;1.97;;
13197;SDS011;6664;52.514;13.440;2022-07-23T13:24:53;2.20;;;2.00;;
13197;SDS011;6664;52.514;13.440;2022-07-23T13:27:22;1.90;;;1.80;;
13197;SDS011;6664;52.514;13.440;2022-07-23T13:29:50;7.83;;;2.10;;
13197;SDS011;6664;52.514;13.440;2022-07-23T13:32:18;2.80;;;2.40;;
13197;SDS011;6664;52.514;13.440;2022-07-23T13:34:46;2.33;;;2.13;;
13197;SDS011;6664;52.514;13.440;2022-07-23T13:37:16;3.03;;;2.20;;
13197;SDS011;6664;52.514;13.440;2022-07-23T13:39:43;1.60;;;1.40;;
13197;SDS011;6664;52.514;13.440;2022-07-23T13:42:12;3.13;;;1.83;;
13197;SDS011;6664;52.514;13.440;2022-07-23T13:44:39;1.73;;;1.63;;
13197;SDS011;6664;52.514;13.440;2022-07-23T13:47:11;3.97;;;2.00;;
13197;SDS011;6664;52.514;13.440;2022-07-23T13:49:40;2.80;;;1.80;;
13197;SDS011;6664;52.514;13.440;2022-07-23T13:52:07;1.90;;;1.80;;
13197;SDS011;6664;52.514;13.440;2022-07-23T13:54:34;1.77;;;1.67;;
13197;SDS011;6664;52.514;13.440;2022-07-23T13:57:01;2.20;;;1.77;;
13197;SDS011;6664;52.514;13.440;2022-07-23T13:59:28;2.90;;;2.00;;
13197;SDS011;6664;52.514;13.440;2022-07-23T14:01:57;2.70;;;1.70;;
13197;SDS011;6664;52.514;13.440;2022-07-23T14:04:44;1.97;;;1.77;;
13197;SDS011;6664;52.514;13.440;2022-07-23T14:07:13;2.20;;;2.10;;
13197;SDS011;6664;52.514;13.440;2022-07-23T14:09:42;4.73;;;2.10;;
13197;SDS011;6664;52.514;13.440;2022-07-23T14:12:10;3.07;;;2.20;;
13197;SDS011;6664;52.514;13.440;2022-07-23T14:14:37;3.90;;;1.97;;
13197;SDS011;6664;52.514;13.440;2022-07-23T14:17:04;4.77;;;2.40;;
13197;SDS011;6664;52.514;13.440;2022-07-23T14:19:36;4.10;;;2.00;;
13197;SDS011;6664;52.514;13.440;2022-07-23T14:22:05;2.30;;;2.10;;
13197;SDS011;6664;52.514;13.440;2022-07-23T14:24:33;1.80;;;1.70;;
13197;SDS011;6664;52.514;13.440;2022-07-23T14:27:03;9.30;;;1.83;;
13197;SDS011;6664;52.514;13.440;2022-07-23T14:29:31;2.00;;;1.90;;
13197;SDS011;6664;52.514;13.440;2022-07-23T14:32:03;1.60;;;1.50;;
13197;SDS011;6664;52.514;13.440;2022-07-23T14:34:32;1.40;;;1.30;;
13197;SDS011;6664;52.514;13.440;2022-07-23T14:37:03;1.53;;;1.40;;
13197;SDS011;6664;52.514;13.440;2022-07-23T14:39:30;1.43;;;1.33;;
13197;SDS011;6664;52.514;13.440;2022-07-23T14:41:58;1.70;;;1.60;;
13197;SDS011;6664;52.514;13.440;2022-07-23T14:44:29;1.97;;;1.50;;
13197;SDS011;6664;52.514;13.440;2022-07-23T14:46:56;2.27;;;1.60;;
13197;SDS011;6664;52.514;13.440;2022-07-23T14:49:23;2.30;;;1.40;;
13197;SDS011;6664;52.514;13.440;2022-07-23T14:51:53;2.10;;;1.33;;
13197;SDS011;6664;52.514;13.440;2022-07-23T14:54:26;2.23;;;1.77;;
13197;SDS011;6664;52.514;13.440;2022-07-23T14:56:54;1.70;;;1.60;;
13197;SDS011;6664;52.514;13.440;2022-07-23T14:59:22;3.10;;;1.37;;
13197;SDS011;6664;52.514;13.440;2022-07-23T15:01:50;2.43;;;1.60;;
13197;SDS011;6664;52.514;13.440;2022-07-23T15:04:19;2.10;;;1.90;;
13197;SDS011;6664;52.514;13.440;2022-07-23T15:07:02;1.50;;;1.40;;
13197;SDS011;6664;52.514;13.440;2022-07-23T15:09:30;1.50;;;1.40;;
13197;SDS011;6664;52.514;13.440;2022-07-23T15:11:57;2.50;;;1.53;;
13197;SDS011;6664;52.514;13.440;2022-07-23T15:14:24;1.83;;;1.73;;
13197;SDS011;6664;52.514;13.440;2022-07-23T15:17:00;1.63;;;1.33;;
13197;SDS011;6664;52.514;13.440;2022-07-23T15:19:27;3.40;;;1.40;;
13197;SDS011;6664;52.514;13.440;2022-07-23T15:21:56;4.03;;;1.70;;
13197;SDS011;6664;52.514;13.440;2022-07-23T15:24:23;3.23;;;1.37;;
13197;SDS011;6664;52.514;13.440;2022-07-23T15:26:49;3.00;;;1.83;;
13197;SDS011;6664;52.514;13.440;2022-07-23T15:29:16;3.83;;;1.67;;
13197;SDS011;6664;52.514;13.440;2022-07-23T15:31:48;1.47;;;1.27;;
13197;SDS011;6664;52.514;13.440;2022-07-23T15:34:26;4.00;;;1.40;;
13197;SDS011;6664;52.514;13.440;2022-07-23T15:36:57;2.13;;;1.20;;
13197;SDS011;6664;52.514;13.440;2022-07-23T15:39:27;2.17;;;1.53;;
13197;SDS011;6664;52.514;13.440;2022-07-23T15:41:54;6.93;;;1.30;;
13197;SDS011;6664;52.514;13.440;2022-07-23T15:44:24;2.83;;;1.40;;
13197;SDS011;6664;52.514;13.440;2022-07-23T15:46:55;2.03;;;1.20;;
13197;SDS011;6664;52.514;13.440;2022-07-23T15:49:24;12.40;;;1.87;;
13197;SDS011;6664;52.514;13.440;2022-07-23T15:51:54;1.50;;;1.27;;
13197;SDS011;6664;52.514;13.440;2022-07-23T15:54:23;1.93;;;1.30;;
13197;SDS011;6664;52.514;13.440;2022-07-23T15:56:51;1.93;;;1.23;;
13197;SDS011;6664;52.514;13.440;2022-07-23T15:59:18;2.00;;;1.20;;